Time;durP1;ratioP1;P1;durP2;ratioP2;P2;SDS_P1;SDS_P2;PMS_P1;PMS_P2;Temp;Humidity;BMP_temperature;BMP_pressure;BME280_temperature;BME280_humidity;BME280_pressure;Samples;Min_cycle;Max_cycle;Signal;HPM_P1;HPM_P2
2022/10/18 00:00:47;;;;;;;9.52;5.07;;;;;;;;;;4959640;28;20070;-64
2022/10/18 00:03:12;;;;;;;7.20;4.60;;;;;;;;;;4959225;28;20039;-64
2022/10/18 00:05:37;;;;;;;10.73;4.82;;;;;;;;;;4954663;28;20034;-64
2022/10/18 00:08:03;;;;;;;7.97;4.70;;;;;;;;;;4962090;28;20084;-64
2022/10/18 00:10:28;;;;;;;10.23;4.80;;;;;;;;;;4956326;28;20039;-64
2022/10/18 00:12:54;;;;;;;7.63;4.18;;;;;;;;;;4972141;28;20106;-64
2022/10/18 00:15:19;;;;;;;9.02;5.03;;;;;;;;;;4962276;28;20035;-64
2022/10/18 00:17:44;;;;;;;7.28;4.40;;;;;;;;;;4954154;28;20065;-64
2022/10/18 00:20:10;;;;;;;8.57;5.00;;;;;;;;;;4956919;28;21479;-64
2022/10/18 00:22:38;;;;;;;8.45;5.03;;;;;;;;;;4977550;28;20066;-64
2022/10/18 00:25:04;;;;;;;11.95;5.22;;;;;;;;;;4965044;28;20066;-64
2022/10/18 00:27:31;;;;;;;9.23;5.25;;;;;;;;;;4971785;28;20057;-64
2022/10/18 00:29:56;;;;;;;7.70;4.95;;;;;;;;;;4971709;28;20035;-63
2022/10/18 00:32:22;;;;;;;7.47;5.05;;;;;;;;;;4981080;28;20034;-64
2022/10/18 00:34:48;;;;;;;9.25;5.10;;;;;;;;;;4970405;28;20110;-64
2022/10/18 00:37:13;;;;;;;6.28;4.75;;;;;;;;;;4980172;28;20117;-63
2022/10/18 00:39:39;;;;;;;8.88;4.72;;;;;;;;;;4971154;28;20061;-64
2022/10/18 00:42:04;;;;;;;6.93;4.72;;;;;;;;;;4991535;28;20034;-64
2022/10/18 00:44:29;;;;;;;9.07;4.85;;;;;;;;;;4981397;28;20458;-64
2022/10/18 00:47:01;;;;;;;7.53;4.40;;;;;;;;;;4980907;28;20038;-64
2022/10/18 00:49:32;;;;;;;10.68;4.90;;;;;;;;;;4984498;28;20031;-64
2022/10/18 00:52:02;;;;;;;9.40;4.72;;;;;;;;;;4965124;28;20066;-64
2022/10/18 00:54:31;;;;;;;8.60;4.13;;;;;;;;;;4954298;28;20388;-64
2022/10/18 00:56:57;;;;;;;8.48;4.30;;;;;;;;;;4971510;28;20077;-64
2022/10/18 00:59:23;;;;;;;11.60;4.78;;;;;;;;;;4957783;28;20491;-65
2022/10/18 01:01:49;;;;;;;9.07;4.38;;;;;;;;;;4954037;28;20031;-64
2022/10/18 01:04:16;;;;;;;6.65;4.18;;;;;;;;;;4970270;28;20041;-64
2022/10/18 01:06:55;;;;;;;8.25;4.80;;;;;;;;;;4971315;28;20114;-64
2022/10/18 01:09:30;;;;;;;7.97;4.57;;;;;;;;;;4969772;28;20038;-64
2022/10/18 01:12:25;;;;;;;6.25;3.97;;;;;;;;;;4964847;28;20043;-63
2022/10/18 01:15:02;;;;;;;8.48;4.13;;;;;;;;;;4971737;28;20054;-64
2022/10/18 01:17:40;;;;;;;7.07;4.30;;;;;;;;;;4958271;28;20106;-64
2022/10/18 01:20:39;;;;;;;7.93;4.25;;;;;;;;;;4982836;28;20097;-63
2022/10/18 01:23:11;;;;;;;6.15;3.78;;;;;;;;;;4965056;28;20043;-64
2022/10/18 01:25:37;;;;;;;6.97;4.40;;;;;;;;;;4960343;28;20030;-64
2022/10/18 01:28:24;;;;;;;8.48;4.38;;;;;;;;;;4966255;28;20073;-64
2022/10/18 01:31:18;;;;;;;6.32;4.22;;;;;;;;;;4969296;28;20060;-64
2022/10/18 01:34:01;;;;;;;5.72;4.10;;;;;;;;;;4954703;28;20207;-64
2022/10/18 01:36:39;;;;;;;6.47;4.20;;;;;;;;;;4975623;28;20085;-64
2022/10/18 01:39:09;;;;;;;5.47;4.20;;;;;;;;;;4953243;28;20420;-64
2022/10/18 01:41:38;;;;;;;8.00;4.40;;;;;;;;;;4953997;28;20035;-64
2022/10/18 01:44:07;;;;;;;10.27;4.05;;;;;;;;;;4958589;28;20034;-64
2022/10/18 01:46:33;;;;;;;8.05;4.70;;;;;;;;;;4962090;28;20511;-63
2022/10/18 01:48:59;;;;;;;8.68;4.60;;;;;;;;;;4953681;28;20032;-63
2022/10/18 01:51:32;;;;;;;7.53;4.55;;;;;;;;;;4977817;28;20487;-64
2022/10/18 01:53:57;;;;;;;7.38;4.50;;;;;;;;;;4972933;28;20356;-64
2022/10/18 01:56:28;;;;;;;7.82;4.65;;;;;;;;;;4954427;28;20058;-63
2022/10/18 01:59:19;;;;;;;6.40;4.43;;;;;;;;;;4969511;28;20431;-64
2022/10/18 02:02:12;;;;;;;7.90;4.57;;;;;;;;;;4969752;28;20245;-63
2022/10/18 02:04:47;;;;;;;9.38;4.68;;;;;;;;;;4953886;28;20042;-65
2022/10/18 02:07:22;;;;;;;8.50;5.28;;;;;;;;;;4953470;28;20042;-64
2022/10/18 02:10:06;;;;;;;8.60;4.65;;;;;;;;;;4955083;28;20442;-64
2022/10/18 02:12:33;;;;;;;8.00;5.22;;;;;;;;;;4968989;28;20041;-64
2022/10/18 02:15:01;;;;;;;8.23;5.35;;;;;;;;;;4960085;28;20212;-63
2022/10/18 02:17:28;;;;;;;12.55;5.53;;;;;;;;;;4959186;28;20121;-65
2022/10/18 02:19:55;;;;;;;9.00;5.22;;;;;;;;;;4953077;28;20110;-64
2022/10/18 02:22:22;;;;;;;9.48;5.35;;;;;;;;;;4954381;28;20101;-64
2022/10/18 02:24:52;;;;;;;9.98;5.40;;;;;;;;;;4978810;28;20308;-64
2022/10/18 02:27:17;;;;;;;9.15;5.15;;;;;;;;;;4970393;28;20087;-64
2022/10/18 02:29:44;;;;;;;8.38;5.50;;;;;;;;;;4958631;28;20034;-64
2022/10/18 02:32:27;;;;;;;8.05;5.20;;;;;;;;;;4955659;28;20046;-64
2022/10/18 02:34:58;;;;;;;8.55;5.72;;;;;;;;;;4963716;28;20466;-64
2022/10/18 02:37:29;;;;;;;8.18;5.00;;;;;;;;;;4964405;28;20058;-64
2022/10/18 02:39:55;;;;;;;9.68;5.32;;;;;;;;;;4969422;28;20118;-64
2022/10/18 02:42:21;;;;;;;9.80;5.40;;;;;;;;;;4955381;28;20162;-64
2022/10/18 02:44:46;;;;;;;7.60;5.13;;;;;;;;;;4966488;28;20043;-64
2022/10/18 02:47:12;;;;;;;8.23;5.07;;;;;;;;;;4959562;28;20431;-64
2022/10/18 02:49:37;;;;;;;8.80;5.32;;;;;;;;;;4968251;28;20029;-64
2022/10/18 02:52:03;;;;;;;8.88;5.05;;;;;;;;;;4960505;28;20473;-64
2022/10/18 02:54:28;;;;;;;8.38;5.30;;;;;;;;;;4966870;28;20037;-64
2022/10/18 02:56:53;;;;;;;8.65;5.50;;;;;;;;;;4979094;28;20027;-64
2022/10/18 02:59:20;;;;;;;10.13;5.55;;;;;;;;;;4964105;28;20074;-64
2022/10/18 03:01:45;;;;;;;8.10;5.32;;;;;;;;;;4966852;28;20097;-65
2022/10/18 03:04:11;;;;;;;9.45;4.93;;;;;;;;;;4976831;28;20038;-65
2022/10/18 03:06:36;;;;;;;10.00;5.35;;;;;;;;;;4989556;28;20457;-65
2022/10/18 03:09:04;;;;;;;9.88;5.70;;;;;;;;;;4994215;28;20081;-64
2022/10/18 03:11:29;;;;;;;8.35;4.97;;;;;;;;;;4973566;28;20039;-65
2022/10/18 03:13:54;;;;;;;8.43;5.18;;;;;;;;;;4960263;28;20034;-64
2022/10/18 03:16:20;;;;;;;8.82;5.15;;;;;;;;;;4984899;28;20388;-64
2022/10/18 03:18:45;;;;;;;9.13;5.97;;;;;;;;;;4964551;28;20027;-64
2022/10/18 03:21:11;;;;;;;9.88;5.53;;;;;;;;;;4964852;28;20043;-63
2022/10/18 03:23:36;;;;;;;9.30;5.72;;;;;;;;;;4980050;28;20035;-64
2022/10/18 03:26:02;;;;;;;10.20;5.70;;;;;;;;;;4966744;28;20396;-63
2022/10/18 03:28:27;;;;;;;8.15;5.57;;;;;;;;;;4956548;28;20068;-63
2022/10/18 03:30:59;;;;;;;9.15;5.90;;;;;;;;;;4957896;28;20035;-64
2022/10/18 03:33:24;;;;;;;11.20;5.65;;;;;;;;;;4957400;28;20110;-63
2022/10/18 03:35:50;;;;;;;9.13;5.55;;;;;;;;;;4957447;28;20710;-64
2022/10/18 03:38:15;;;;;;;9.35;5.40;;;;;;;;;;4968251;28;20039;-63
2022/10/18 03:40:40;;;;;;;7.70;5.18;;;;;;;;;;4955182;28;20038;-64
2022/10/18 03:43:06;;;;;;;14.15;6.93;;;;;;;;;;4982590;28;20088;-63
2022/10/18 03:45:31;;;;;;;8.38;5.95;;;;;;;;;;4991656;28;20034;-64
2022/10/18 03:47:56;;;;;;;8.68;5.82;;;;;;;;;;4971953;28;20046;-64
2022/10/18 03:50:22;;;;;;;8.60;6.05;;;;;;;;;;4976138;28;20038;-64
2022/10/18 03:52:47;;;;;;;10.25;5.75;;;;;;;;;;4954955;28;20087;-64
2022/10/18 03:55:12;;;;;;;12.77;6.30;;;;;;;;;;4956695;28;20038;-65
2022/10/18 03:57:38;;;;;;;10.80;6.53;;;;;;;;;;4964617;28;20038;-64
2022/10/18 04:00:04;;;;;;;9.40;6.18;;;;;;;;;;4955274;28;20443;-63
2022/10/18 04:02:29;;;;;;;10.70;6.65;;;;;;;;;;4955867;28;20098;-64
2022/10/18 04:04:57;;;;;;;15.30;6.43;;;;;;;;;;4965036;28;20030;-63
2022/10/18 04:07:22;;;;;;;11.48;6.50;;;;;;;;;;5000094;28;20368;-62
2022/10/18 04:09:48;;;;;;;15.65;7.00;;;;;;;;;;4993533;28;20036;-63
2022/10/18 04:12:13;;;;;;;11.38;6.15;;;;;;;;;;4981173;28;20101;-62
2022/10/18 04:14:38;;;;;;;11.10;6.82;;;;;;;;;;4973086;28;20030;-63
2022/10/18 04:17:04;;;;;;;16.42;7.43;;;;;;;;;;4967743;28;20491;-63
2022/10/18 04:19:29;;;;;;;13.45;6.90;;;;;;;;;;4963072;28;20101;-63
2022/10/18 04:21:55;;;;;;;12.93;6.90;;;;;;;;;;4969245;28;20150;-62
2022/10/18 04:24:20;;;;;;;13.18;7.03;;;;;;;;;;4954798;28;20496;-63
2022/10/18 04:26:45;;;;;;;15.18;7.20;;;;;;;;;;4981280;28;20042;-63
2022/10/18 04:29:11;;;;;;;11.50;7.30;;;;;;;;;;4957276;28;20545;-63
2022/10/18 04:31:36;;;;;;;12.07;7.20;;;;;;;;;;4954170;28;20069;-64
2022/10/18 04:34:03;;;;;;;12.60;7.28;;;;;;;;;;4977400;28;20038;-62
2022/10/18 04:36:29;;;;;;;11.38;7.40;;;;;;;;;;4957031;28;20035;-62
2022/10/18 04:38:54;;;;;;;10.35;7.00;;;;;;;;;;4955721;28;20650;-63
2022/10/18 04:41:20;;;;;;;14.05;8.00;;;;;;;;;;4984988;28;20475;-62
2022/10/18 04:43:45;;;;;;;16.27;8.52;;;;;;;;;;4987777;28;20034;-63
2022/10/18 04:46:10;;;;;;;13.38;8.65;;;;;;;;;;4981877;28;20501;-63
2022/10/18 04:48:36;;;;;;;15.48;9.15;;;;;;;;;;4969867;28;20035;-63
2022/10/18 04:51:01;;;;;;;14.38;8.50;;;;;;;;;;4955390;28;20051;-62
2022/10/18 04:53:27;;;;;;;18.50;9.10;;;;;;;;;;4969163;28;20031;-61
2022/10/18 04:55:52;;;;;;;19.85;9.43;;;;;;;;;;4955787;28;20062;-62
2022/10/18 04:58:18;;;;;;;17.95;9.50;;;;;;;;;;4969899;28;20035;-61
2022/10/18 05:00:44;;;;;;;16.98;9.65;;;;;;;;;;4955421;28;20062;-61
2022/10/18 05:03:11;;;;;;;19.98;9.20;;;;;;;;;;4981184;28;20394;-62
2022/10/18 05:05:37;;;;;;;17.13;9.68;;;;;;;;;;4984330;28;20137;-62
2022/10/18 05:08:02;;;;;;;18.70;9.85;;;;;;;;;;4992634;28;20033;-61
2022/10/18 05:10:27;;;;;;;17.10;9.80;;;;;;;;;;4991600;28;20458;-61
2022/10/18 05:12:53;;;;;;;19.20;9.93;;;;;;;;;;4975866;28;20027;-62
2022/10/18 05:15:18;;;;;;;18.73;9.77;;;;;;;;;;4985667;28;20031;-61
2022/10/18 05:17:44;;;;;;;20.83;9.70;;;;;;;;;;4987259;28;20518;-63
2022/10/18 05:20:09;;;;;;;21.33;9.48;;;;;;;;;;4983152;28;20074;-64
2022/10/18 05:22:35;;;;;;;15.45;9.43;;;;;;;;;;4969884;28;20440;-67
2022/10/18 05:25:00;;;;;;;19.85;9.45;;;;;;;;;;4970501;28;20379;-67
2022/10/18 05:27:27;;;;;;;16.52;9.00;;;;;;;;;;4974226;28;20027;-68
2022/10/18 05:29:52;;;;;;;18.60;8.95;;;;;;;;;;4977602;28;20073;-67
2022/10/18 05:32:18;;;;;;;16.15;9.25;;;;;;;;;;4994316;28;20034;-68
2022/10/18 05:34:43;;;;;;;15.82;9.77;;;;;;;;;;4988327;28;20034;-67
2022/10/18 05:37:09;;;;;;;19.60;9.75;;;;;;;;;;4983554;28;20039;-68
2022/10/18 05:39:36;;;;;;;19.27;9.55;;;;;;;;;;4990342;28;20042;-68
2022/10/18 05:42:01;;;;;;;19.95;10.02;;;;;;;;;;4994036;28;20041;-68
2022/10/18 05:44:27;;;;;;;17.38;9.68;;;;;;;;;;4963489;28;20380;-68
2022/10/18 05:46:53;;;;;;;22.75;10.32;;;;;;;;;;4973250;28;20090;-68
2022/10/18 05:49:18;;;;;;;19.40;10.40;;;;;;;;;;4972044;28;20106;-68
2022/10/18 05:51:43;;;;;;;21.38;9.98;;;;;;;;;;4972111;28;20027;-68
2022/10/18 05:54:12;;;;;;;24.20;10.05;;;;;;;;;;4987827;28;20065;-69
2022/10/18 05:56:38;;;;;;;17.98;9.75;;;;;;;;;;4991650;28;20038;-67
2022/10/18 05:59:08;;;;;;;23.40;10.50;;;;;;;;;;4990992;28;20340;-70
2022/10/18 06:01:34;;;;;;;23.02;11.40;;;;;;;;;;4991904;28;20394;-72
2022/10/18 06:03:59;;;;;;;24.40;11.20;;;;;;;;;;4983621;28;20038;-66
2022/10/18 06:06:25;;;;;;;21.50;10.57;;;;;;;;;;4992090;28;20033;-66
2022/10/18 06:08:50;;;;;;;21.98;10.23;;;;;;;;;;4990247;28;20069;-68
2022/10/18 06:11:17;;;;;;;19.75;11.02;;;;;;;;;;4989194;28;20379;-68
2022/10/18 06:13:45;;;;;;;23.38;11.30;;;;;;;;;;4979888;28;20487;-68
2022/10/18 06:16:12;;;;;;;24.33;11.27;;;;;;;;;;4989385;28;20043;-68
2022/10/18 06:18:37;;;;;;;27.67;11.93;;;;;;;;;;4991925;28;20069;-66
2022/10/18 06:21:03;;;;;;;23.40;11.65;;;;;;;;;;4989860;28;20061;-68
2022/10/18 06:23:29;;;;;;;28.25;12.25;;;;;;;;;;4995847;28;20041;-66
2022/10/18 06:26:03;;;;;;;27.73;12.95;;;;;;;;;;4984105;28;20142;-68
2022/10/18 06:28:29;;;;;;;33.90;14.00;;;;;;;;;;4976319;28;20031;-68
2022/10/18 06:30:57;;;;;;;31.63;14.32;;;;;;;;;;4980152;28;20033;-68
2022/10/18 06:33:23;;;;;;;40.08;16.88;;;;;;;;;;4995762;28;20467;-70
2022/10/18 06:36:00;;;;;;;42.38;15.43;;;;;;;;;;4986201;28;20062;-68
2022/10/18 06:38:26;;;;;;;45.25;18.33;;;;;;;;;;4995707;28;20034;-70
2022/10/18 06:40:52;;;;;;;43.65;17.73;;;;;;;;;;4993887;28;20048;-70
2022/10/18 06:43:17;;;;;;;43.60;18.42;;;;;;;;;;4974735;28;20031;-69
2022/10/18 06:45:43;;;;;;;48.35;18.30;;;;;;;;;;4981464;28;20039;-69
2022/10/18 06:48:08;;;;;;;48.30;18.05;;;;;;;;;;4995367;28;20026;-68
2022/10/18 06:50:34;;;;;;;50.50;18.75;;;;;;;;;;4994252;28;20031;-68
2022/10/18 06:53:00;;;;;;;46.65;18.77;;;;;;;;;;4977792;28;20049;-65
2022/10/18 06:55:25;;;;;;;47.67;19.10;;;;;;;;;;4977319;28;20041;-65
2022/10/18 06:57:52;;;;;;;49.78;19.70;;;;;;;;;;4986538;28;20113;-72
2022/10/18 07:00:17;;;;;;;48.65;20.23;;;;;;;;;;4992289;28;20376;-71
2022/10/18 07:02:42;;;;;;;50.22;20.35;;;;;;;;;;4994523;28;20489;-71
2022/10/18 07:05:09;;;;;;;57.72;20.88;;;;;;;;;;4983695;28;20046;-70
2022/10/18 07:07:34;;;;;;;52.83;20.73;;;;;;;;;;4995156;28;20030;-71
2022/10/18 07:09:59;;;;;;;54.92;20.65;;;;;;;;;;4992150;28;20122;-71
2022/10/18 07:12:25;;;;;;;53.38;21.25;;;;;;;;;;4992990;28;20039;-67
2022/10/18 07:14:50;;;;;;;52.45;21.13;;;;;;;;;;4998244;28;20026;-69
2022/10/18 07:17:15;;;;;;;56.03;21.52;;;;;;;;;;4984371;28;20411;-69
2022/10/18 07:19:41;;;;;;;54.17;20.77;;;;;;;;;;4992424;28;20077;-71
2022/10/18 07:22:06;;;;;;;52.55;20.88;;;;;;;;;;4989975;28;20047;-71
2022/10/18 07:24:32;;;;;;;57.10;22.15;;;;;;;;;;4989242;28;20034;-69
2022/10/18 07:26:57;;;;;;;53.13;21.52;;;;;;;;;;4993139;28;20030;-70
2022/10/18 07:29:22;;;;;;;57.17;22.27;;;;;;;;;;4988579;28;20092;-70
2022/10/18 07:31:48;;;;;;;61.13;22.90;;;;;;;;;;4982092;28;20038;-71
2022/10/18 07:34:13;;;;;;;60.47;23.88;;;;;;;;;;4975533;28;20515;-71
2022/10/18 07:36:39;;;;;;;73.15;23.75;;;;;;;;;;4975860;28;20035;-70
2022/10/18 07:39:05;;;;;;;57.17;22.65;;;;;;;;;;4992993;28;20061;-73
2022/10/18 07:41:32;;;;;;;60.47;22.65;;;;;;;;;;4992940;28;20027;-72
2022/10/18 07:43:58;;;;;;;52.17;21.10;;;;;;;;;;4993748;28;20030;-74
2022/10/18 07:46:24;;;;;;;50.63;20.88;;;;;;;;;;4976941;28;20145;-71
2022/10/18 07:48:51;;;;;;;58.00;22.48;;;;;;;;;;5000301;28;20161;-70
2022/10/18 07:51:18;;;;;;;59.80;21.42;;;;;;;;;;4992345;28;20034;-73
2022/10/18 07:53:44;;;;;;;54.80;22.67;;;;;;;;;;4980326;28;20117;-72
2022/10/18 07:56:15;;;;;;;56.05;22.13;;;;;;;;;;4975232;28;20121;-72
2022/10/18 07:58:44;;;;;;;56.78;22.75;;;;;;;;;;4991088;28;20042;-71
2022/10/18 08:01:10;;;;;;;58.55;23.38;;;;;;;;;;4989625;28;20050;-72
2022/10/18 08:03:36;;;;;;;54.95;22.15;;;;;;;;;;4992331;28;20033;-69
2022/10/18 08:06:04;;;;;;;57.40;22.83;;;;;;;;;;4990878;28;20689;-70
2022/10/18 08:08:29;;;;;;;53.45;22.67;;;;;;;;;;4994041;28;20030;-72
2022/10/18 08:10:55;;;;;;;54.42;21.48;;;;;;;;;;4987742;28;20034;-70
2022/10/18 08:13:20;;;;;;;52.58;21.38;;;;;;;;;;4988486;28;20038;-70
2022/10/18 08:15:46;;;;;;;48.60;21.33;;;;;;;;;;4988132;28;20038;-70
2022/10/18 08:18:12;;;;;;;46.05;20.67;;;;;;;;;;4991061;28;20061;-72
2022/10/18 08:20:42;;;;;;;47.63;21.40;;;;;;;;;;4975012;28;20031;-70
2022/10/18 08:23:08;;;;;;;45.00;20.52;;;;;;;;;;4974235;28;20057;-71
2022/10/18 08:25:33;;;;;;;44.20;20.15;;;;;;;;;;4993658;28;20030;-72
2022/10/18 08:28:00;;;;;;;48.33;22.02;;;;;;;;;;4991299;28;20035;-72
2022/10/18 08:30:25;;;;;;;43.58;21.48;;;;;;;;;;4991910;28;20038;-71
2022/10/18 08:32:51;;;;;;;49.55;22.13;;;;;;;;;;4992863;28;20030;-71
2022/10/18 08:35:16;;;;;;;51.72;22.27;;;;;;;;;;4990856;28;20372;-71
2022/10/18 08:37:44;;;;;;;56.05;21.98;;;;;;;;;;4987258;28;20046;-68
2022/10/18 08:40:12;;;;;;;57.60;23.42;;;;;;;;;;4989471;28;20069;-71
2022/10/18 08:43:07;;;;;;;56.58;23.70;;;;;;;;;;4993136;28;20392;-71
2022/10/18 08:45:37;;;;;;;56.15;23.30;;;;;;;;;;4988766;28;20461;-71
2022/10/18 08:48:05;;;;;;;54.60;22.52;;;;;;;;;;4992607;28;20053;-71
2022/10/18 08:50:35;;;;;;;57.65;22.70;;;;;;;;;;4990556;28;20471;-68
2022/10/18 08:53:23;;;;;;;58.92;23.77;;;;;;;;;;4984955;28;20105;-69
2022/10/18 08:56:01;;;;;;;60.08;23.65;;;;;;;;;;4953708;28;20031;-71
2022/10/18 08:58:31;;;;;;;58.63;23.58;;;;;;;;;;4954287;28;20098;-71
2022/10/18 09:01:14;;;;;;;59.53;23.40;;;;;;;;;;4992438;28;20034;-73
2022/10/18 09:03:39;;;;;;;53.13;22.55;;;;;;;;;;4987626;28;20307;-71
2022/10/18 09:06:15;;;;;;;52.83;22.60;;;;;;;;;;4992079;28;20031;-69
2022/10/18 09:08:46;;;;;;;46.72;21.35;;;;;;;;;;4989818;28;20104;-74
2022/10/18 09:11:53;;;;;;;52.40;22.27;;;;;;;;;;4976001;28;20038;-72
2022/10/18 09:14:30;;;;;;;50.22;21.02;;;;;;;;;;4934600;29;20047;-71
2022/10/18 09:17:22;;;;;;;49.58;21.42;;;;;;;;;;4940652;29;20040;-71
2022/10/18 09:20:00;;;;;;;47.50;21.42;;;;;;;;;;4976722;28;20073;-72
2022/10/18 09:22:34;;;;;;;46.13;21.52;;;;;;;;;;4992630;28;20050;-70
2022/10/18 09:25:14;;;;;;;47.72;20.38;;;;;;;;;;4971060;28;20058;-69
2022/10/18 09:27:44;;;;;;;44.47;20.58;;;;;;;;;;4970402;28;20039;-72
2022/10/18 09:30:24;;;;;;;42.67;20.38;;;;;;;;;;4973068;28;20042;-70
2022/10/18 09:32:55;;;;;;;39.83;20.05;;;;;;;;;;4983094;28;20467;-71
2022/10/18 09:35:43;;;;;;;40.95;19.92;;;;;;;;;;4991944;28;20121;-72
2022/10/18 09:38:11;;;;;;;40.30;19.20;;;;;;;;;;4964668;28;20051;-70
2022/10/18 09:40:47;;;;;;;35.33;18.77;;;;;;;;;;4972837;28;20030;-74
2022/10/18 09:43:24;;;;;;;34.05;18.38;;;;;;;;;;4969514;28;20094;-72
2022/10/18 09:45:52;;;;;;;34.95;18.77;;;;;;;;;;4971249;28;20085;-72
2022/10/18 09:48:30;;;;;;;36.90;19.42;;;;;;;;;;4961111;28;20038;-72
2022/10/18 09:51:06;;;;;;;35.83;19.17;;;;;;;;;;4972098;28;20047;-71
2022/10/18 09:53:50;;;;;;;34.10;18.23;;;;;;;;;;4972513;28;20383;-71
2022/10/18 09:56:28;;;;;;;34.63;18.77;;;;;;;;;;4987688;28;20439;-70
2022/10/18 09:58:54;;;;;;;34.03;19.27;;;;;;;;;;4984981;28;20035;-71
2022/10/18 10:01:28;;;;;;;36.13;18.75;;;;;;;;;;4980639;28;20037;-72
2022/10/18 10:03:54;;;;;;;34.20;18.00;;;;;;;;;;4986177;28;20030;-74
2022/10/18 10:06:31;;;;;;;36.22;18.35;;;;;;;;;;4991825;28;20057;-73
2022/10/18 10:09:00;;;;;;;29.30;17.27;;;;;;;;;;4989116;28;20057;-72
2022/10/18 10:11:35;;;;;;;31.20;18.48;;;;;;;;;;4992237;28;20230;-72
2022/10/18 10:14:14;;;;;;;32.75;19.27;;;;;;;;;;4980074;28;20078;-68
2022/10/18 10:16:44;;;;;;;33.50;18.05;;;;;;;;;;4972753;28;20031;-69
2022/10/18 10:19:27;;;;;;;27.17;15.82;;;;;;;;;;4977926;28;20061;-71
2022/10/18 10:22:03;;;;;;;27.95;15.98;;;;;;;;;;4990251;28;20042;-68
2022/10/18 10:24:39;;;;;;;19.95;12.25;;;;;;;;;;4990988;28;20084;-69
2022/10/18 10:27:13;;;;;;;25.77;13.30;;;;;;;;;;4985853;28;20049;-70
2022/10/18 10:29:44;;;;;;;25.42;13.75;;;;;;;;;;4986097;28;20118;-69
2022/10/18 10:32:12;;;;;;;21.48;13.05;;;;;;;;;;4980065;28;20387;-69
2022/10/18 10:34:38;;;;;;;22.15;13.10;;;;;;;;;;4979121;28;20054;-73
2022/10/18 10:37:20;;;;;;;22.65;12.98;;;;;;;;;;4986966;28;20037;-68
2022/10/18 10:40:04;;;;;;;25.33;13.10;;;;;;;;;;4971349;28;20121;-68
2022/10/18 10:42:31;;;;;;;21.58;11.43;;;;;;;;;;4974417;28;20121;-70
2022/10/18 10:44:57;;;;;;;22.45;12.50;;;;;;;;;;4975703;28;20031;-69
2022/10/18 10:47:33;;;;;;;23.25;11.52;;;;;;;;;;4997362;28;20081;-75
2022/10/18 10:49:59;;;;;;;24.50;12.35;;;;;;;;;;4989056;28;20042;-72
2022/10/18 10:52:28;;;;;;;17.23;9.43;;;;;;;;;;4980292;28;20066;-73
2022/10/18 10:54:56;;;;;;;18.15;10.27;;;;;;;;;;4983093;28;20089;-72
2022/10/18 10:57:24;;;;;;;18.95;10.52;;;;;;;;;;4972010;28;20069;-72
2022/10/18 10:59:52;;;;;;;19.33;10.45;;;;;;;;;;4971325;28;20034;-70
2022/10/18 11:02:30;;;;;;;15.85;8.48;;;;;;;;;;4972236;28;20117;-74
2022/10/18 11:05:14;;;;;;;17.05;9.85;;;;;;;;;;4990809;28;20348;-73
2022/10/18 11:07:42;;;;;;;16.67;9.38;;;;;;;;;;4990909;28;20035;-72
2022/10/18 11:10:10;;;;;;;14.60;8.30;;;;;;;;;;4976755;28;20499;-71
2022/10/18 11:13:00;;;;;;;12.75;7.60;;;;;;;;;;4979444;28;20030;-71
2022/10/18 11:15:31;;;;;;;17.67;7.53;;;;;;;;;;4984262;28;20130;-70
2022/10/18 11:18:19;;;;;;;14.07;7.18;;;;;;;;;;4980000;28;20467;-70
2022/10/18 11:20:55;;;;;;;16.05;7.40;;;;;;;;;;4994799;28;20047;-70
2022/10/18 11:23:27;;;;;;;12.32;7.13;;;;;;;;;;4993820;28;20074;-73
2022/10/18 11:26:11;;;;;;;13.63;6.32;;;;;;;;;;4987744;28;20066;-73
2022/10/18 11:28:58;;;;;;;13.43;6.68;;;;;;;;;;4984298;28;20165;-74
2022/10/18 11:31:52;;;;;;;11.15;5.78;;;;;;;;;;4992043;28;20034;-70
2022/10/18 11:34:20;;;;;;;14.15;7.00;;;;;;;;;;4986510;28;20069;-72
2022/10/18 11:36:57;;;;;;;12.68;7.25;;;;;;;;;;4991274;28;20045;-69
2022/10/18 11:39:29;;;;;;;14.60;7.15;;;;;;;;;;4994927;28;20037;-71
2022/10/18 11:42:15;;;;;;;13.93;7.13;;;;;;;;;;4991258;28;20121;-72
2022/10/18 11:45:08;;;;;;;18.00;8.60;;;;;;;;;;4973446;28;20081;-69
2022/10/18 11:47:53;;;;;;;17.13;8.60;;;;;;;;;;4974889;28;20074;-71
2022/10/18 11:50:18;;;;;;;14.68;8.63;;;;;;;;;;4977311;28;20058;-71
2022/10/18 11:53:14;;;;;;;15.38;8.07;;;;;;;;;;4994667;28;20452;-68
2022/10/18 11:56:18;;;;;;;15.98;8.40;;;;;;;;;;4991309;28;20320;-71
2022/10/18 11:59:11;;;;;;;15.02;8.57;;;;;;;;;;4987191;28;20057;-70
2022/10/18 12:01:42;;;;;;;16.27;8.32;;;;;;;;;;4974904;28;20042;-69
2022/10/18 12:04:13;;;;;;;14.23;7.80;;;;;;;;;;4985781;28;20034;-69
2022/10/18 12:06:41;;;;;;;17.00;8.43;;;;;;;;;;4992208;28;20061;-70
2022/10/18 12:09:15;;;;;;;16.42;8.13;;;;;;;;;;4988485;28;20097;-73
2022/10/18 12:11:51;;;;;;;13.23;7.18;;;;;;;;;;4992918;28;20053;-72
2022/10/18 12:14:22;;;;;;;14.80;7.75;;;;;;;;;;4992647;28;20030;-72
2022/10/18 12:16:49;;;;;;;12.32;6.60;;;;;;;;;;4987972;28;20031;-70
2022/10/18 12:19:19;;;;;;;14.77;6.45;;;;;;;;;;4993771;28;20038;-67
2022/10/18 12:21:45;;;;;;;;;;;;;;;;;;4989506;28;20068;-72
2022/10/18 12:24:17;;;;;;;15.45;7.30;;;;;;;;;;4990789;28;19921;-69
2022/10/18 12:26:43;;;;;;;15.82;6.95;;;;;;;;;;4979648;28;20030;-68
2022/10/18 12:29:18;;;;;;;16.13;7.50;;;;;;;;;;4972174;28;20038;-69
2022/10/18 12:31:58;;;;;;;16.05;7.00;;;;;;;;;;4984020;28;20041;-67
2022/10/18 12:34:26;;;;;;;12.00;6.22;;;;;;;;;;4983133;28;20050;-68
2022/10/18 12:37:20;;;;;;;12.45;5.57;;;;;;;;;;4988045;28;20054;-68
2022/10/18 12:40:02;;;;;;;9.32;5.03;;;;;;;;;;4990066;28;20455;-68
2022/10/18 12:42:30;;;;;;;11.27;5.10;;;;;;;;;;4987080;28;20105;-67
2022/10/18 12:45:19;;;;;;;11.40;5.57;;;;;;;;;;4982949;28;20026;-67
2022/10/18 12:47:45;;;;;;;11.60;5.10;;;;;;;;;;4977979;28;20050;-66
2022/10/18 12:50:30;;;;;;;11.65;5.53;;;;;;;;;;4975185;28;20052;-67
2022/10/18 12:53:09;;;;;;;11.55;5.45;;;;;;;;;;4987103;28;20069;-67
2022/10/18 12:55:42;;;;;;;14.95;4.72;;;;;;;;;;4981131;28;20045;-66
2022/10/18 12:58:13;;;;;;;11.45;4.68;;;;;;;;;;4981370;28;20080;-68
2022/10/18 13:00:40;;;;;;;10.20;4.57;;;;;;;;;;4968486;28;20034;-67
2022/10/18 13:03:09;;;;;;;10.23;4.53;;;;;;;;;;4982818;28;20302;-67
2022/10/18 13:05:46;;;;;;;11.98;4.72;;;;;;;;;;4993024;28;20026;-67
2022/10/18 13:08:27;;;;;;;9.00;3.78;;;;;;;;;;4988241;28;20038;-67
2022/10/18 13:11:10;;;;;;;8.48;3.58;;;;;;;;;;4990267;28;20479;-67
2022/10/18 13:14:18;;;;;;;10.02;3.50;;;;;;;;;;4992622;28;20069;-65
2022/10/18 13:16:49;;;;;;;11.13;3.95;;;;;;;;;;4991544;28;20033;-67
2022/10/18 13:19:54;;;;;;;13.40;4.13;;;;;;;;;;4989622;28;20076;-68
2022/10/18 13:22:29;;;;;;;11.55;3.53;;;;;;;;;;4954934;28;20085;-69
2022/10/18 13:25:34;;;;;;;11.73;3.25;;;;;;;;;;4961687;28;20041;-68
2022/10/18 13:28:25;;;;;;;8.73;3.35;;;;;;;;;;4975650;28;20038;-64
2022/10/18 13:31:19;;;;;;;11.32;3.33;;;;;;;;;;4986490;28;20058;-69
2022/10/18 13:33:45;;;;;;;7.13;2.72;;;;;;;;;;4992282;28;20472;-68
2022/10/18 13:36:16;;;;;;;7.57;2.50;;;;;;;;;;4989007;28;20058;-68
2022/10/18 13:38:57;;;;;;;11.88;2.70;;;;;;;;;;4982232;28;20411;-66
2022/10/18 13:41:51;;;;;;;7.15;2.40;;;;;;;;;;4992456;28;20035;-73
2022/10/18 13:44:36;;;;;;;6.78;2.20;;;;;;;;;;4980748;28;20042;-73
2022/10/18 13:47:01;;;;;;;10.27;2.80;;;;;;;;;;4980271;28;20031;-70
2022/10/18 13:49:39;;;;;;;8.25;2.10;;;;;;;;;;4962565;28;20529;-73
2022/10/18 13:52:28;;;;;;;7.55;2.30;;;;;;;;;;4972398;28;20039;-71
2022/10/18 13:55:18;;;;;;;5.68;1.98;;;;;;;;;;4978071;28;20034;-74
2022/10/18 13:58:03;;;;;;;7.35;2.28;;;;;;;;;;4953857;28;20027;-75
2022/10/18 14:01:04;;;;;;;6.80;2.30;;;;;;;;;;4979346;28;20034;-75
2022/10/18 14:03:41;;;;;;;6.38;2.25;;;;;;;;;;4971635;28;20109;-77
2022/10/18 14:06:14;;;;;;;10.45;2.30;;;;;;;;;;4969832;28;20045;-72
2022/10/18 14:08:55;;;;;;;10.10;2.30;;;;;;;;;;4981950;28;20032;-73
2022/10/18 14:11:32;;;;;;;6.95;1.77;;;;;;;;;;4992195;28;20034;-72
2022/10/18 14:14:16;;;;;;;8.88;1.70;;;;;;;;;;4985599;28;20500;-71
2022/10/18 14:16:49;;;;;;;9.75;2.00;;;;;;;;;;4978395;28;20042;-71
2022/10/18 14:19:35;;;;;;;7.40;2.13;;;;;;;;;;4978228;28;20092;-71
2022/10/18 14:22:16;;;;;;;7.13;1.80;;;;;;;;;;4989012;28;20097;-72
2022/10/18 14:24:49;;;;;;;6.43;1.65;;;;;;;;;;4985916;28;20121;-72
2022/10/18 14:27:23;;;;;;;4.90;1.52;;;;;;;;;;4988942;28;20034;-74
2022/10/18 14:30:05;;;;;;;6.10;1.58;;;;;;;;;;4991708;28;20117;-71
2022/10/18 14:32:31;;;;;;;6.25;1.70;;;;;;;;;;4984107;28;20384;-72
2022/10/18 14:34:57;;;;;;;8.65;2.08;;;;;;;;;;4972910;28;20037;-72
2022/10/18 14:37:29;;;;;;;9.63;2.05;;;;;;;;;;4987173;28;20030;-74
2022/10/18 14:39:54;;;;;;;5.60;1.70;;;;;;;;;;4989021;28;20053;-74
2022/10/18 14:42:24;;;;;;;9.02;1.92;;;;;;;;;;4995300;28;20030;-73
2022/10/18 14:44:54;;;;;;;7.75;2.03;;;;;;;;;;4992296;28;20042;-69
2022/10/18 14:47:28;;;;;;;6.25;2.00;;;;;;;;;;4983907;28;20039;-72
2022/10/18 14:49:56;;;;;;;7.85;1.80;;;;;;;;;;4990712;28;20057;-75
2022/10/18 14:52:40;;;;;;;6.80;1.80;;;;;;;;;;4995568;28;20414;-75
2022/10/18 14:55:23;;;;;;;6.35;1.58;;;;;;;;;;4994840;28;20105;-73